Time;durP1;ratioP1;P1;durP2;ratioP2;P2;SDS_P1;SDS_P2;PMS_P1;PMS_P2;Temp;Humidity;BMP_temperature;BMP_pressure;BME280_temperature;BME280_humidity;BME280_pressure;Samples;Min_cycle;Max_cycle;Signal;HPM_P1;HPM_P2
2023/03/14 00:02:21;;;;;;;7.60;4.60;;;;;;;10.01;54.93;96448.08;109161;1294;22277;-86
2023/03/14 00:04:49;;;;;;;9.00;5.20;;;;;;;10.10;55.03;96448.16;109171;1294;22119;-87
2023/03/14 00:07:17;;;;;;;6.40;5.10;;;;;;;10.16;55.02;96449.05;109182;1294;23074;-87
2023/03/14 00:09:45;;;;;;;6.80;5.10;;;;;;;10.18;55.14;96451.44;109186;1294;22907;-87
2023/03/14 00:12:14;;;;;;;7.00;5.60;;;;;;;10.16;55.17;96441.44;109237;1294;22148;-86
2023/03/14 00:14:43;;;;;;;6.80;5.60;;;;;;;10.12;55.33;96433.16;109413;1294;22258;-87
2023/03/14 00:17:13;;;;;;;7.20;5.40;;;;;;;10.06;55.47;96425.61;109216;1294;22219;-86
2023/03/14 00:19:41;;;;;;;8.20;6.70;;;;;;;9.98;55.43;96418.46;109164;1294;22211;-85
2023/03/14 00:22:09;;;;;;;7.80;6.40;;;;;;;9.94;55.49;96409.14;109186;1294;22149;-86
2023/03/14 00:24:37;;;;;;;7.20;6.30;;;;;;;9.89;55.35;96405.20;109155;1294;22292;-85
2023/03/14 00:27:05;;;;;;;8.80;6.40;;;;;;;9.83;55.70;96403.23;109164;1294;22256;-85
2023/03/14 00:29:33;;;;;;;6.50;5.50;;;;;;;9.79;55.61;96390.95;109156;1289;22881;-86
2023/03/14 00:32:01;;;;;;;10.00;6.30;;;;;;;9.82;55.37;96376.67;109176;1290;22164;-86
2023/03/14 00:34:33;;;;;;;7.30;5.10;;;;;;;9.86;55.08;96376.90;109171;1294;22193;-85
2023/03/14 00:37:00;;;;;;;6.50;5.00;;;;;;;9.90;55.22;96377.80;109169;1294;22207;-85
2023/03/14 00:39:28;;;;;;;6.90;4.60;;;;;;;9.92;54.80;96373.65;109165;1294;22276;-86
2023/03/14 00:41:57;;;;;;;5.80;4.70;;;;;;;9.96;55.04;96358.25;109132;1294;22184;-86
2023/03/14 00:44:25;;;;;;;7.60;4.80;;;;;;;9.97;54.90;96346.25;109172;1294;22226;-85
2023/03/14 00:46:53;;;;;;;7.90;5.30;;;;;;;9.97;54.95;96334.39;109170;1294;22166;-85
2023/03/14 00:49:21;;;;;;;6.60;5.10;;;;;;;9.95;55.04;96325.16;109171;1294;22268;-86
2023/03/14 00:51:51;;;;;;;5.90;4.90;;;;;;;9.92;55.14;96313.60;109168;1294;22357;-86
2023/03/14 00:54:19;;;;;;;9.30;5.20;;;;;;;9.88;55.35;96302.85;109179;1294;22935;-87
2023/03/14 00:56:48;;;;;;;7.10;4.90;;;;;;;9.83;55.23;96305.83;109173;1294;22214;-86
2023/03/14 00:59:16;;;;;;;8.80;6.20;;;;;;;9.78;55.19;96309.23;108984;1294;22233;-86
2023/03/14 01:01:44;;;;;;;8.20;6.30;;;;;;;9.73;55.29;96298.02;109172;1294;22987;-86
2023/03/14 01:04:13;;;;;;;8.40;6.10;;;;;;;9.67;55.36;96294.14;109148;1294;22325;-87
2023/03/14 01:06:41;;;;;;;10.30;7.30;;;;;;;9.57;55.05;96289.52;109180;1294;22214;-88
2023/03/14 01:09:11;;;;;;;10.00;7.10;;;;;;;9.48;55.24;96274.38;109138;1294;23077;-87
2023/03/14 01:11:39;;;;;;;9.00;7.50;;;;;;;9.38;55.52;96263.50;109177;1294;22435;-88
2023/03/14 01:14:07;;;;;;;11.00;7.30;;;;;;;9.30;55.43;96246.79;109171;1294;22881;-87
2023/03/14 01:16:36;;;;;;;9.80;7.90;;;;;;;9.22;55.68;96245.59;109165;1294;22215;-88
2023/03/14 01:19:04;;;;;;;11.00;8.90;;;;;;;9.14;55.60;96251.64;109176;1294;22253;-88
2023/03/14 01:21:34;;;;;;;12.00;9.60;;;;;;;9.07;55.59;96261.19;108965;1294;22221;-86
2023/03/14 01:24:05;;;;;;;12.40;10.10;;;;;;;8.99;55.72;96260.36;108965;1292;22245;-86
2023/03/14 01:26:34;;;;;;;10.70;8.50;;;;;;;8.90;55.65;96248.03;109094;1294;22246;-85
2023/03/14 01:29:04;;;;;;;13.10;8.90;;;;;;;8.83;55.79;96251.62;109170;1294;22246;-86
2023/03/14 01:31:33;;;;;;;9.00;7.40;;;;;;;8.76;56.37;96260.63;109156;1294;22228;-86
2023/03/14 01:34:01;;;;;;;9.90;8.40;;;;;;;8.70;56.16;96268.46;109179;1294;22345;-86
2023/03/14 01:36:29;;;;;;;10.20;8.70;;;;;;;8.64;56.26;96264.17;109185;1294;22222;-85
2023/03/14 01:39:00;;;;;;;11.20;9.00;;;;;;;8.59;56.45;96250.27;109141;1295;22290;-84
2023/03/14 01:41:28;;;;;;;11.60;9.20;;;;;;;8.52;56.75;96240.81;109167;1294;22175;-85
2023/03/14 01:43:58;;;;;;;11.20;9.40;;;;;;;8.40;56.52;96227.36;109123;1294;22266;-85
2023/03/14 01:46:42;;;;;;;13.70;9.40;;;;;;;8.32;56.72;96227.27;109116;1294;22191;-84
2023/03/14 01:49:34;;;;;;;10.10;8.70;;;;;;;8.22;57.36;96216.30;109326;1294;23066;-85
2023/03/14 01:52:18;;;;;;;10.00;7.60;;;;;;;8.20;57.62;96193.70;109321;1294;22172;-85
2023/03/14 01:54:58;;;;;;;9.90;7.60;;;;;;;8.22;57.74;96179.96;109160;1294;22224;-85
2023/03/14 01:57:31;;;;;;;8.90;7.70;;;;;;;8.29;57.85;96177.72;109108;1294;22206;-85
2023/03/14 02:00:11;;;;;;;9.80;7.90;;;;;;;8.30;57.56;96167.70;109163;1294;22961;-85
2023/03/14 02:02:46;;;;;;;9.90;8.70;;;;;;;8.25;57.72;96166.03;108978;1294;22230;-85
2023/03/14 02:05:21;;;;;;;10.30;7.30;;;;;;;8.18;57.67;96163.17;109153;1294;22900;-85
2023/03/14 02:08:07;;;;;;;8.20;6.70;;;;;;;8.17;58.03;96156.64;109000;1294;22167;-85
2023/03/14 02:10:45;;;;;;;9.90;7.40;;;;;;;8.20;58.14;96146.92;109183;1294;22238;-85
2023/03/14 02:13:16;;;;;;;11.30;8.10;;;;;;;8.20;58.20;96143.08;109096;1294;23034;-85
2023/03/14 02:16:01;;;;;;;9.80;7.80;;;;;;;8.15;58.23;96130.05;109153;1294;22273;-85
2023/03/14 02:18:52;;;;;;;8.20;6.70;;;;;;;8.14;58.42;96125.91;109096;1295;22217;-84
2023/03/14 02:21:53;;;;;;;7.90;6.20;;;;;;;8.17;58.36;96125.57;109055;1294;22211;-85
2023/03/14 02:24:59;;;;;;;8.50;6.60;;;;;;;8.21;58.44;96129.73;109162;1294;23048;-84
2023/03/14 02:27:27;;;;;;;7.90;6.80;;;;;;;8.23;58.48;96132.62;109165;1294;22733;-85
2023/03/14 02:30:00;;;;;;;8.10;7.20;;;;;;;8.24;58.81;96127.52;109177;1279;22279;-85
2023/03/14 02:32:32;;;;;;;10.00;6.70;;;;;;;8.24;58.84;96126.46;109127;1294;22246;-87
2023/03/14 02:35:06;;;;;;;8.40;6.30;;;;;;;8.23;58.74;96133.02;109189;1294;22195;-85
2023/03/14 02:37:45;;;;;;;7.70;6.80;;;;;;;8.20;58.80;96132.30;109196;1294;22170;-88
2023/03/14 02:40:14;;;;;;;11.60;8.90;;;;;;;8.20;58.95;96134.36;109109;1294;22312;-86
2023/03/14 02:42:42;;;;;;;9.30;8.40;;;;;;;8.19;58.89;96131.88;109228;1294;22127;-87
2023/03/14 02:45:10;;;;;;;11.90;7.40;;;;;;;8.17;59.00;96129.42;109178;1294;22185;-86
2023/03/14 02:48:03;;;;;;;8.60;7.10;;;;;;;8.16;58.87;96126.85;109124;1294;22138;-86
2023/03/14 02:50:33;;;;;;;9.00;7.30;;;;;;;8.13;58.86;96120.40;109148;1294;22156;-87
2023/03/14 02:53:02;;;;;;;7.80;6.90;;;;;;;8.13;59.20;96117.39;109184;1294;22862;-86
2023/03/14 02:55:30;;;;;;;8.80;6.40;;;;;;;8.17;59.34;96109.03;109110;1294;22220;-87
2023/03/14 02:58:00;;;;;;;9.20;8.00;;;;;;;8.17;59.21;96116.40;109094;1294;22236;-88
2023/03/14 03:00:30;;;;;;;9.80;7.50;;;;;;;8.13;59.24;96110.88;109078;1295;22913;-86
2023/03/14 03:02:58;;;;;;;10.00;8.50;;;;;;;8.15;59.51;96108.34;109107;1294;22246;-86
2023/03/14 03:05:26;;;;;;;9.30;8.40;;;;;;;8.17;59.49;96116.45;109198;1294;22278;-87
2023/03/14 03:07:56;;;;;;;9.30;7.90;;;;;;;8.14;59.26;96114.46;109153;1294;22183;-85
2023/03/14 03:10:26;;;;;;;9.90;8.30;;;;;;;8.12;59.54;96115.27;109164;1294;22251;-87
2023/03/14 03:12:54;;;;;;;11.80;7.50;;;;;;;8.05;59.40;96117.14;109108;1294;22126;-87
2023/03/14 03:15:25;;;;;;;10.50;7.50;;;;;;;7.93;59.76;96111.72;109123;1294;22860;-85
2023/03/14 03:17:53;;;;;;;13.90;12.70;;;;;;;7.81;59.87;96111.26;109103;1294;22096;-86
2023/03/14 03:20:21;;;;;;;11.00;8.80;;;;;;;7.71;59.82;96121.91;109100;1294;22204;-86
2023/03/14 03:22:49;;;;;;;13.00;9.40;;;;;;;7.59;59.86;96129.35;109171;1294;22160;-86
2023/03/14 03:25:17;;;;;;;10.30;8.80;;;;;;;7.52;60.20;96130.64;109294;1294;22211;-87
2023/03/14 03:27:46;;;;;;;11.00;9.60;;;;;;;7.43;60.45;96135.02;109362;1294;22986;-86
2023/03/14 03:30:17;;;;;;;10.80;8.90;;;;;;;7.29;59.95;96140.81;108986;1294;22158;-86
2023/03/14 03:32:46;;;;;;;10.20;7.70;;;;;;;7.11;60.67;96147.22;109188;1294;22225;-85
2023/03/14 03:35:14;;;;;;;14.70;13.20;;;;;;;6.98;61.41;96141.02;109180;1294;22885;-87
2023/03/14 03:37:42;;;;;;;10.70;9.50;;;;;;;6.85;62.15;96140.89;109184;1294;22123;-86
2023/03/14 03:40:10;;;;;;;16.90;15.10;;;;;;;6.72;62.01;96142.33;109158;1294;22972;-86
2023/03/14 03:42:38;;;;;;;12.80;11.30;;;;;;;6.59;61.20;96140.02;109162;1294;22205;-85
2023/03/14 03:45:09;;;;;;;14.40;13.00;;;;;;;6.47;61.45;96140.87;109147;1294;22226;-86
2023/03/14 03:47:41;;;;;;;11.20;9.40;;;;;;;6.41;61.33;96149.45;109092;1294;22239;-85
2023/03/14 03:50:09;;;;;;;12.00;9.10;;;;;;;6.30;62.15;96143.88;109180;1294;22301;-85
2023/03/14 03:52:37;;;;;;;12.70;10.10;;;;;;;6.21;62.93;96143.44;109175;1294;22873;-85
2023/03/14 03:55:06;;;;;;;15.50;13.10;;;;;;;6.15;62.78;96150.13;109090;1294;22230;-84
2023/03/14 03:57:34;;;;;;;18.20;16.40;;;;;;;6.09;62.53;96143.95;108982;1294;22142;-86
2023/03/14 04:00:04;;;;;;;16.80;13.90;;;;;;;6.08;62.67;96143.38;109055;1294;22205;-85
2023/03/14 04:02:40;;;;;;;21.60;14.60;;;;;;;6.11;63.07;96143.14;109196;1294;22195;-85
2023/03/14 04:05:12;;;;;;;13.50;11.60;;;;;;;6.13;63.26;96148.30;109167;1294;22220;-85
2023/03/14 04:07:46;;;;;;;14.20;11.50;;;;;;;6.19;63.94;96165.80;109178;1294;22200;-86
2023/03/14 04:10:18;;;;;;;15.80;11.20;;;;;;;6.40;64.93;96180.36;109181;1294;22235;-86
2023/03/14 04:13:09;;;;;;;13.00;11.70;;;;;;;6.64;64.66;96183.88;109122;1294;22216;-85
2023/03/14 04:15:39;;;;;;;15.60;10.70;;;;;;;6.77;64.95;96178.86;108996;1294;22374;-87
2023/03/14 04:18:17;;;;;;;12.50;10.10;;;;;;;6.89;65.22;96179.77;109204;1294;22876;-87
2023/03/14 04:20:45;;;;;;;12.90;10.30;;;;;;;7.03;65.76;96181.77;109550;1294;22009;-85
2023/03/14 04:23:13;;;;;;;14.40;9.90;;;;;;;7.19;65.42;96179.06;109810;1294;22194;-86
2023/03/14 04:25:41;;;;;;;13.30;10.40;;;;;;;7.30;64.78;96182.57;109270;1294;22213;-86
2023/03/14 04:28:09;;;;;;;13.80;10.90;;;;;;;7.34;64.53;96180.66;109186;1294;22337;-87
2023/03/14 04:30:37;;;;;;;13.30;10.90;;;;;;;7.33;64.66;96174.67;109114;1294;22237;-86
2023/03/14 04:33:19;;;;;;;17.50;13.20;;;;;;;7.20;64.73;96181.93;109080;1294;23326;-86
2023/03/14 04:35:55;;;;;;;15.90;14.30;;;;;;;7.15;64.53;96172.70;109178;1294;22145;-87
2023/03/14 04:38:23;;;;;;;17.10;10.80;;;;;;;7.12;64.71;96175.60;109173;1294;22271;-87
2023/03/14 04:41:43;;;;;;;13.40;11.20;;;;;;;7.16;64.83;96179.92;109177;1294;22211;-86
2023/03/14 04:44:11;;;;;;;16.40;12.60;;;;;;;7.19;64.83;96177.16;109094;1294;22174;-86
2023/03/14 04:46:39;;;;;;;16.50;13.50;;;;;;;7.24;65.01;96184.19;109169;1294;22258;-85
2023/03/14 04:49:07;;;;;;;24.70;15.60;;;;;;;7.30;64.84;96177.53;109093;1294;23120;-86
2023/03/14 04:51:36;;;;;;;15.90;12.10;;;;;;;7.32;64.78;96172.47;109153;1294;22277;-88
2023/03/14 04:54:04;;;;;;;19.80;15.30;;;;;;;7.30;64.81;96170.94;109081;1294;22231;-84
2023/03/14 04:56:32;;;;;;;18.80;13.90;;;;;;;7.20;64.97;96161.13;109182;1294;22156;-85
2023/03/14 04:59:02;;;;;;;17.10;15.30;;;;;;;7.15;65.06;96159.33;109098;1294;22251;-85
2023/03/14 05:01:31;;;;;;;21.40;17.60;;;;;;;7.14;64.84;96156.52;108960;1294;22247;-85
2023/03/14 05:04:18;;;;;;;18.00;14.70;;;;;;;7.10;65.08;96144.92;109184;1294;22242;-84
2023/03/14 05:07:15;;;;;;;16.60;13.10;;;;;;;7.07;65.27;96141.44;108575;1294;22875;-87
2023/03/14 05:09:57;;;;;;;17.60;15.80;;;;;;;7.08;65.98;96130.92;109155;1294;22949;-87
2023/03/14 05:12:48;;;;;;;14.00;12.50;;;;;;;7.07;65.96;96142.23;109109;1294;22891;-85
2023/03/14 05:15:44;;;;;;;22.00;17.30;;;;;;;6.93;65.55;96143.51;109142;1294;22317;-85
2023/03/14 05:18:29;;;;;;;;;;;;;;;6.81;66.18;96127.27;109202;1294;22481;-86
2023/03/14 05:21:14;;;;;;;20.50;18.70;;;;;;;6.70;65.87;96125.64;109185;1294;22041;-87
2023/03/14 05:24:15;;;;;;;21.50;19.20;;;;;;;6.60;65.94;96124.09;108848;1294;22208;-85
2023/03/14 05:27:07;;;;;;;20.30;15.90;;;;;;;6.51;66.46;96111.50;109191;1294;22218;-86
2023/03/14 05:29:53;;;;;;;20.10;15.20;;;;;;;6.43;67.24;96112.26;109207;1294;22209;-85
2023/03/14 05:32:40;;;;;;;19.90;16.80;;;;;;;6.37;66.70;96117.25;109205;1294;22278;-86
2023/03/14 05:35:08;;;;;;;20.30;15.80;;;;;;;6.42;66.87;96107.16;109212;1294;22242;-85
2023/03/14 05:38:02;;;;;;;24.20;17.90;;;;;;;6.51;67.03;96097.14;109046;1294;22159;-85
2023/03/14 05:40:50;;;;;;;20.50;17.60;;;;;;;6.57;67.18;96095.44;109073;1294;22240;-86
2023/03/14 05:43:54;;;;;;;17.30;14.40;;;;;;;6.65;68.29;96094.92;108966;1294;22279;-86
2023/03/14 05:46:54;;;;;;;16.40;13.70;;;;;;;6.71;67.71;96092.95;108815;1294;22973;-87
2023/03/14 05:49:35;;;;;;;15.30;11.40;;;;;;;6.78;67.68;96086.84;109084;1294;22249;-86
2023/03/14 05:52:14;;;;;;;16.50;13.50;;;;;;;6.86;67.85;96078.52;109190;1294;22936;-86
2023/03/14 05:55:06;;;;;;;42.70;25.40;;;;;;;6.94;67.65;96078.02;109185;1294;22222;-85
2023/03/14 05:58:03;;;;;;;38.30;22.30;;;;;;;7.10;67.65;96076.92;109105;1294;23131;-84
2023/03/14 06:00:54;;;;;;;24.00;17.80;;;;;;;7.29;67.68;96083.64;108868;1294;22173;-87
2023/03/14 06:03:50;;;;;;;21.80;16.90;;;;;;;7.46;67.50;96077.58;109162;1294;22181;-87
2023/03/14 06:06:18;;;;;;;21.30;17.30;;;;;;;7.57;67.39;96074.58;109201;1294;22206;-85
2023/03/14 06:08:46;;;;;;;24.80;16.90;;;;;;;7.67;67.41;96070.08;109010;1294;22226;-86
2023/03/14 06:11:14;;;;;;;24.50;17.30;;;;;;;7.76;67.33;96072.77;109169;1294;22164;-85
2023/03/14 06:13:49;;;;;;;23.70;16.70;;;;;;;7.86;67.62;96071.48;109212;1294;22207;-85
2023/03/14 06:16:17;;;;;;;20.80;18.30;;;;;;;7.96;67.19;96071.60;109005;1294;22087;-86
2023/03/14 06:18:46;;;;;;;26.50;21.70;;;;;;;8.05;67.21;96065.41;109168;1294;22207;-87
2023/03/14 06:21:15;;;;;;;24.20;21.60;;;;;;;8.14;67.08;96083.30;109093;1294;22697;-86
2023/03/14 06:23:46;;;;;;;23.20;18.30;;;;;;;8.23;66.87;96076.88;109084;1294;22413;-86
2023/03/14 06:26:14;;;;;;;23.00;20.20;;;;;;;8.33;67.02;96086.60;109197;1294;22302;-88
2023/03/14 06:28:42;;;;;;;16.20;14.40;;;;;;;8.43;66.90;96084.48;109201;1294;22861;-89
2023/03/14 06:31:12;;;;;;;11.90;9.10;;;;;;;8.57;66.54;96075.22;109182;1294;22222;-84
2023/03/14 06:33:47;;;;;;;13.30;7.80;;;;;;;8.84;65.64;96076.30;109047;1294;22258;-86
2023/03/14 06:36:16;;;;;;;11.20;7.90;;;;;;;9.13;65.65;96068.92;109277;1292;22424;-85
2023/03/14 06:38:44;;;;;;;11.30;6.50;;;;;;;9.34;64.98;96061.92;109244;1294;22209;-86
2023/03/14 06:41:13;;;;;;;11.40;6.60;;;;;;;9.55;64.17;96046.98;109193;1294;22229;-86
2023/03/14 06:43:44;;;;;;;10.60;6.70;;;;;;;9.79;63.32;96049.09;109149;1294;22211;-88
2023/03/14 06:46:13;;;;;;;11.90;6.70;;;;;;;9.97;62.98;96049.55;109149;1294;22212;-92
2023/03/14 06:48:41;;;;;;;9.60;6.10;;;;;;;10.11;62.88;96051.48;109501;1294;22105;-90
2023/03/14 06:51:09;;;;;;;8.70;6.00;;;;;;;10.24;62.35;96058.66;109501;1294;22241;-84
2023/03/14 06:53:37;;;;;;;14.20;8.60;;;;;;;10.35;62.11;96058.45;109248;1294;22220;-89
2023/03/14 06:56:06;;;;;;;10.50;7.10;;;;;;;10.46;62.08;96060.62;109225;1294;22993;-86
2023/03/14 06:58:34;;;;;;;9.10;6.10;;;;;;;10.57;61.44;96055.20;109188;1294;22232;-88
2023/03/14 07:01:04;;;;;;;11.60;6.70;;;;;;;10.66;61.46;96044.13;109138;1294;22179;-86
2023/03/14 07:03:37;;;;;;;9.10;6.50;;;;;;;10.73;61.70;96035.39;109268;1286;22398;-87
2023/03/14 07:06:05;;;;;;;13.00;8.30;;;;;;;10.80;61.67;96033.73;109063;1286;22272;-83
2023/03/14 07:08:34;;;;;;;9.10;6.80;;;;;;;10.87;61.00;96032.38;109090;1294;22270;-86
2023/03/14 07:11:02;;;;;;;11.10;6.80;;;;;;;10.93;60.60;96032.52;109174;1286;22274;-85
2023/03/14 07:13:30;;;;;;;15.50;9.50;;;;;;;10.99;60.67;96024.27;109144;1294;22172;-84
2023/03/14 07:16:03;;;;;;;12.00;8.50;;;;;;;11.04;60.35;96024.70;109162;1294;22200;-83
2023/03/14 07:18:31;;;;;;;12.20;8.20;;;;;;;11.09;59.55;96030.70;109149;1294;22186;-84
2023/03/14 07:21:03;;;;;;;9.40;5.60;;;;;;;11.13;59.01;96033.41;108965;1292;22158;-84
2023/03/14 07:23:32;;;;;;;9.50;5.80;;;;;;;11.17;59.17;96032.72;109140;1292;22222;-83
2023/03/14 07:26:01;;;;;;;7.80;5.30;;;;;;;11.22;58.99;96031.54;108902;1293;22184;-81
2023/03/14 07:28:30;;;;;;;9.20;5.50;;;;;;;11.27;58.31;96031.43;109126;1294;22703;-81
2023/03/14 07:31:06;;;;;;;8.90;5.20;;;;;;;11.31;58.05;96033.00;109129;1293;22227;-81
2023/03/14 07:33:35;;;;;;;7.70;6.10;;;;;;;11.38;57.65;96034.85;109135;1294;22203;-85
2023/03/14 07:36:03;;;;;;;8.90;5.30;;;;;;;11.44;57.92;96032.91;109147;1293;23002;-84
2023/03/14 07:38:31;;;;;;;7.00;5.00;;;;;;;11.51;57.38;96024.98;108977;1292;22230;-83
2023/03/14 07:41:14;;;;;;;7.90;5.90;;;;;;;11.59;56.81;96024.86;109135;1286;22803;-84
2023/03/14 07:43:57;;;;;;;16.20;6.20;;;;;;;11.66;56.96;96038.42;109135;1294;22628;-83
2023/03/14 07:46:26;;;;;;;8.90;6.10;;;;;;;11.72;56.54;96042.34;109036;1293;22214;-84
2023/03/14 07:48:54;;;;;;;9.10;6.80;;;;;;;11.78;56.00;96059.35;109179;1294;22217;-83
2023/03/14 07:51:21;;;;;;;8.80;6.50;;;;;;;11.82;55.15;96054.38;109156;1293;22165;-85
2023/03/14 07:53:49;;;;;;;10.00;5.70;;;;;;;11.88;55.03;96054.67;109157;1280;22365;-82
2023/03/14 07:56:17;;;;;;;11.10;6.80;;;;;;;11.94;54.47;96066.73;109182;1293;22262;-82
2023/03/14 07:58:45;;;;;;;7.90;5.80;;;;;;;11.98;54.57;96074.77;109177;1294;22274;-83
2023/03/14 08:01:14;;;;;;;11.10;6.20;;;;;;;12.03;54.24;96066.83;109212;1294;22215;-83
2023/03/14 08:03:41;;;;;;;12.30;6.10;;;;;;;12.08;53.97;96056.58;109159;1286;22213;-82
2023/03/14 08:06:09;;;;;;;12.20;6.00;;;;;;;12.15;53.77;96069.15;109290;1282;22352;-82
2023/03/14 08:08:38;;;;;;;11.20;5.60;;;;;;;12.21;53.73;96078.23;109146;1294;22198;-84
2023/03/14 08:11:10;;;;;;;10.20;6.10;;;;;;;12.28;53.37;96076.36;109187;1287;22243;-83
2023/03/14 08:13:39;;;;;;;11.40;5.60;;;;;;;12.37;53.57;96071.39;109083;1295;22167;-82
2023/03/14 08:16:07;;;;;;;9.00;5.30;;;;;;;12.48;53.07;96073.48;109084;1286;23833;-83
2023/03/14 08:18:35;;;;;;;13.80;10.00;;;;;;;12.56;52.98;96079.94;109067;1295;23049;-82
2023/03/14 08:21:03;;;;;;;9.50;6.50;;;;;;;12.60;52.96;96077.77;109069;1280;22265;-83
2023/03/14 08:23:31;;;;;;;9.40;6.50;;;;;;;12.63;53.00;96066.11;109151;1294;22360;-82
2023/03/14 08:25:59;;;;;;;35.00;29.30;;;;;;;12.65;52.96;96064.36;109166;1294;22218;-85
2023/03/14 08:28:32;;;;;;;27.50;24.40;;;;;;;12.69;53.10;96060.28;109183;1294;22917;-87
2023/03/14 08:31:01;;;;;;;25.30;22.30;;;;;;;12.72;53.36;96053.23;109163;1294;22838;-87
2023/03/14 08:33:30;;;;;;;20.60;17.60;;;;;;;12.79;53.24;96053.13;109318;1293;22250;-87
2023/03/14 08:36:00;;;;;;;14.60;9.50;;;;;;;12.85;53.83;96045.67;109194;1293;22347;-86
2023/03/14 08:38:28;;;;;;;10.40;7.80;;;;;;;12.92;53.45;96045.26;109177;1274;22355;-84
2023/03/14 08:40:58;;;;;;;10.80;7.20;;;;;;;12.96;52.60;96048.11;109176;1294;22218;-85
2023/03/14 08:43:27;;;;;;;15.50;9.00;;;;;;;12.93;52.73;96054.15;109141;1293;23038;-85
2023/03/14 08:46:00;;;;;;;14.80;7.60;;;;;;;12.92;52.48;96061.48;109305;1293;22138;-84
2023/03/14 08:48:29;;;;;;;9.80;7.40;;;;;;;12.91;52.51;96060.07;109312;1293;22161;-85
2023/03/14 08:51:10;;;;;;;12.40;7.20;;;;;;;12.91;52.03;96067.09;109319;1293;22217;-84
2023/03/14 08:53:38;;;;;;;22.80;19.00;;;;;;;12.91;52.36;96068.73;109329;1286;22980;-83
2023/03/14 08:56:09;;;;;;;16.80;12.70;;;;;;;12.99;51.97;96068.24;109160;1293;22210;-86
2023/03/14 08:58:37;;;;;;;22.30;18.30;;;;;;;13.06;51.87;96074.79;109186;1294;22214;-86
2023/03/14 09:01:07;;;;;;;20.70;12.10;;;;;;;13.14;51.71;96086.59;109158;1294;22253;-86
2023/03/14 09:03:37;;;;;;;13.80;8.80;;;;;;;13.20;51.40;96093.42;109151;1294;22218;-85
2023/03/14 09:06:08;;;;;;;9.50;7.30;;;;;;;13.22;51.42;96093.92;109157;1294;22921;-84
2023/03/14 09:08:36;;;;;;;16.80;8.60;;;;;;;13.23;51.29;96092.54;109260;1289;22224;-85
2023/03/14 09:11:08;;;;;;;11.50;7.90;;;;;;;13.25;51.00;96095.70;109153;1293;22147;-85
2023/03/14 09:13:37;;;;;;;14.30;8.40;;;;;;;13.27;51.35;96095.98;109302;1279;22217;-87
2023/03/14 09:16:05;;;;;;;13.70;7.30;;;;;;;13.29;50.90;96093.75;109150;1293;22232;-84
2023/03/14 09:18:33;;;;;;;13.90;7.80;;;;;;;13.29;50.72;96099.94;109304;1293;22293;-84
2023/03/14 09:21:02;;;;;;;16.10;7.70;;;;;;;13.31;50.73;96107.71;109323;1270;22267;-84
2023/03/14 09:23:30;;;;;;;12.10;6.10;;;;;;;13.34;50.80;96111.09;109248;1286;22333;-87
2023/03/14 09:25:59;;;;;;;11.00;7.20;;;;;;;13.37;50.33;96111.91;109213;1294;22130;-88
2023/03/14 09:28:27;;;;;;;9.10;6.30;;;;;;;13.36;50.72;96113.52;109303;1286;22257;-86
2023/03/14 09:30:55;;;;;;;19.10;9.70;;;;;;;13.41;50.40;96113.13;109316;1293;22213;-85
2023/03/14 09:33:23;;;;;;;14.50;7.90;;;;;;;13.42;50.58;96109.37;109316;1293;22970;-84
2023/03/14 09:35:51;;;;;;;11.00;7.20;;;;;;;13.40;50.61;96127.66;109313;1293;22923;-85
2023/03/14 09:38:20;;;;;;;12.40;6.40;;;;;;;13.39;50.54;96119.54;109351;1293;22261;-85
2023/03/14 09:40:49;;;;;;;14.60;7.70;;;;;;;13.35;50.56;96109.25;109320;1293;22260;-86
2023/03/14 09:43:17;;;;;;;11.00;7.40;;;;;;;13.35;50.47;96115.05;109180;1286;22176;-84
2023/03/14 09:45:48;;;;;;;10.70;6.70;;;;;;;13.33;49.96;96116.86;109182;1286;22914;-90
2023/03/14 09:48:21;;;;;;;13.00;7.00;;;;;;;13.29;50.09;96121.51;109125;1289;22227;-91
2023/03/14 09:50:54;;;;;;;15.10;8.90;;;;;;;13.34;50.24;96120.37;109158;1294;22190;-90
2023/03/14 09:53:31;;;;;;;14.00;8.00;;;;;;;13.42;50.46;96119.16;109304;1293;22224;-86
2023/03/14 09:56:00;;;;;;;13.10;7.30;;;;;;;13.53;50.56;96124.33;109350;1293;22999;-82
2023/03/14 09:58:29;;;;;;;13.60;8.10;;;;;;;13.57;50.17;96131.05;109230;1293;22265;-91
2023/03/14 10:00:59;;;;;;;16.70;8.40;;;;;;;13.53;50.25;96131.05;109089;1294;22302;-87
2023/03/14 10:03:35;;;;;;;12.50;8.40;;;;;;;13.59;50.33;96142.83;109159;1294;22525;-86
2023/03/14 10:06:13;;;;;;;18.70;10.70;;;;;;;13.63;49.79;96144.43;109163;1294;22278;-88
2023/03/14 10:08:43;;;;;;;11.40;7.80;;;;;;;13.62;49.87;96140.25;109159;1293;22798;-87
2023/03/14 10:11:16;;;;;;;10.90;7.30;;;;;;;13.63;49.81;96141.12;109089;1289;22250;-88
2023/03/14 10:13:50;;;;;;;11.10;7.00;;;;;;;13.62;50.04;96132.49;109285;1293;22277;-88
2023/03/14 10:16:28;;;;;;;11.50;7.30;;;;;;;13.64;50.12;96144.08;109326;1293;22970;-88
2023/03/14 10:19:03;;;;;;;12.30;8.30;;;;;;;13.65;49.84;96158.01;109200;1292;23000;-89
2023/03/14 10:21:34;;;;;;;;;;;;;;;13.59;50.14;96150.63;109330;1293;22252;-87
2023/03/14 10:24:24;;;;;;;13.70;8.80;;;;;;;13.56;50.44;96144.09;109099;1286;172957;-87
2023/03/14 10:27:17;;;;;;;13.40;9.10;;;;;;;13.57;50.49;96149.91;109313;1294;22970;-88
2023/03/14 10:29:55;;;;;;;10.40;7.10;;;;;;;13.57;50.34;96169.45;109016;1294;22219;-88
2023/03/14 10:32:38;;;;;;;18.00;12.00;;;;;;;13.42;50.49;96162.16;109192;1294;22193;-88
2023/03/14 10:35:15;;;;;;;18.80;13.90;;;;;;;13.33;50.84;96165.95;109102;1294;22170;-88
2023/03/14 10:37:55;;;;;;;11.80;7.00;;;;;;;13.27;51.11;96160.34;109320;1280;22180;-93
2023/03/14 10:40:45;;;;;;;8.50;7.00;;;;;;;13.25;51.24;96157.89;109586;1293;22470;-92
2023/03/14 10:43:17;;;;;;;10.90;6.50;;;;;;;13.19;51.72;96163.40;109348;1293;22223;-91
2023/03/14 10:45:52;;;;;;;11.40;8.50;;;;;;;13.17;51.76;96164.08;109219;1293;22990;-90
2023/03/14 10:48:32;;;;;;;9.50;7.20;;;;;;;13.17;51.86;96144.98;109239;1289;22229;-89
2023/03/14 10:51:24;;;;;;;12.00;7.70;;;;;;;13.17;52.00;96141.35;109354;1293;22258;-91
2023/03/14 10:54:12;;;;;;;13.90;12.40;;;;;;;13.13;52.25;96142.53;109493;1293;22295;-93
2023/03/14 10:56:40;;;;;;;14.10;9.80;;;;;;;13.12;52.56;96142.73;109197;1294;22225;-82
2023/03/14 10:59:15;;;;;;;12.60;8.80;;;;;;;13.10;52.72;96139.61;109166;1286;22266;-84
2023/03/14 11:01:54;;;;;;;14.20;11.60;;;;;;;13.08;52.79;96141.04;109149;1294;22930;-83
2023/03/14 11:04:35;;;;;;;15.90;9.10;;;;;;;13.05;52.81;96144.37;109256;1293;22705;-82
2023/03/14 11:07:20;;;;;;;9.70;6.60;;;;;;;13.00;53.02;96143.11;109334;1293;22883;-89
2023/03/14 11:09:52;;;;;;;13.60;9.20;;;;;;;12.95;53.04;96134.06;109204;1286;22239;-88
2023/03/14 11:12:39;;;;;;;12.90;8.90;;;;;;;12.92;53.27;96137.33;109287;1286;22758;-88
2023/03/14 11:15:22;;;;;;;9.70;8.10;;;;;;;12.90;53.42;96139.08;109145;1289;22295;-89
2023/03/14 11:17:59;;;;;;;10.90;8.80;;;;;;;12.85;53.49;96132.09;109182;1286;22218;-88
2023/03/14 11:20:43;;;;;;;12.70;8.00;;;;;;;12.82;53.75;96128.00;109268;1286;22129;-88
2023/03/14 11:23:21;;;;;;;13.70;7.80;;;;;;;12.80;53.92;96129.98;109350;1280;22243;-89
2023/03/14 11:26:07;;;;;;;14.00;9.90;;;;;;;12.77;53.89;96132.95;109352;1286;22239;-90
2023/03/14 11:28:42;;;;;;;10.80;7.50;;;;;;;12.76;54.18;96137.38;109493;1286;22236;-88
2023/03/14 11:31:38;;;;;;;12.80;8.40;;;;;;;12.71;54.27;96132.83;109465;1293;22192;-90
2023/03/14 11:34:28;;;;;;;9.10;5.90;;;;;;;12.69;54.37;96141.96;109273;1293;22251;-89
2023/03/14 11:37:04;;;;;;;12.40;6.50;;;;;;;12.65;54.57;96141.58;109247;1293;22290;-91
2023/03/14 11:39:39;;;;;;;8.10;5.70;;;;;;;12.62;54.80;96144.83;109337;1293;22917;-90
2023/03/14 11:42:13;;;;;;;9.10;5.60;;;;;;;12.58;54.86;96138.80;109404;1293;22195;-88
2023/03/14 11:44:46;;;;;;;9.50;5.50;;;;;;;12.56;54.89;96130.59;109317;1293;22257;-92
2023/03/14 11:47:34;;;;;;;10.20;5.70;;;;;;;12.55;54.88;96129.31;109359;1290;22158;-88
2023/03/14 11:50:15;;;;;;;13.10;6.30;;;;;;;12.55;55.10;96128.63;109476;1295;22285;-90
2023/03/14 11:52:50;;;;;;;10.60;6.50;;;;;;;12.56;55.36;96121.55;109139;1295;22165;-92